sensor_id;sensor_type;location;lat;lon;timestamp;temperature;humidity
1337;DHT22;662;48.814;9.318;2024-03-02T00:00:07;8.60;71.70
1337;DHT22;662;48.814;9.318;2024-03-02T00:02:43;8.60;71.80
1337;DHT22;662;48.814;9.318;2024-03-02T00:05:19;8.60;71.90
1337;DHT22;662;48.814;9.318;2024-03-02T00:10:20;8.60;71.90
1337;DHT22;662;48.814;9.318;2024-03-02T00:12:48;8.60;71.90
1337;DHT22;662;48.814;9.318;2024-03-02T00:18:01;8.50;72.00
1337;DHT22;662;48.814;9.318;2024-03-02T00:20:26;8.50;72.00
1337;DHT22;662;48.814;9.318;2024-03-02T00:23:02;8.50;72.10
1337;DHT22;662;48.814;9.318;2024-03-02T00:28:01;8.50;73.00
1337;DHT22;662;48.814;9.318;2024-03-02T00:33:11;8.50;72.30
1337;DHT22;662;48.814;9.318;2024-03-02T00:35:37;8.50;72.20
1337;DHT22;662;48.814;9.318;2024-03-02T00:38:06;8.50;72.20
1337;DHT22;662;48.814;9.318;2024-03-02T00:40:32;8.50;72.20
1337;DHT22;662;48.814;9.318;2024-03-02T00:42:58;8.40;72.10
1337;DHT22;662;48.814;9.318;2024-03-02T00:45:25;8.40;72.00
1337;DHT22;662;48.814;9.318;2024-03-02T00:47:51;8.40;72.10
1337;DHT22;662;48.814;9.318;2024-03-02T00:50:18;8.40;72.10
1337;DHT22;662;48.814;9.318;2024-03-02T00:52:44;8.30;72.10
1337;DHT22;662;48.814;9.318;2024-03-02T00:55:10;8.30;72.10
1337;DHT22;662;48.814;9.318;2024-03-02T00:57:36;8.30;72.00
1337;DHT22;662;48.814;9.318;2024-03-02T01:00:01;8.30;72.00
1337;DHT22;662;48.814;9.318;2024-03-02T01:02:28;8.30;71.90
1337;DHT22;662;48.814;9.318;2024-03-02T01:04:54;8.30;71.90
1337;DHT22;662;48.814;9.318;2024-03-02T01:07:20;8.30;72.10
1337;DHT22;662;48.814;9.318;2024-03-02T01:09:45;8.30;72.30
1337;DHT22;662;48.814;9.318;2024-03-02T01:12:11;8.30;72.50
1337;DHT22;662;48.814;9.318;2024-03-02T01:14:37;8.30;72.60
1337;DHT22;662;48.814;9.318;2024-03-02T01:17:02;8.30;72.60
1337;DHT22;662;48.814;9.318;2024-03-02T01:19:29;8.30;72.50
1337;DHT22;662;48.814;9.318;2024-03-02T01:21:55;8.30;72.60
1337;DHT22;662;48.814;9.318;2024-03-02T01:24:21;8.30;72.60
1337;DHT22;662;48.814;9.318;2024-03-02T01:26:46;8.30;72.70
1337;DHT22;662;48.814;9.318;2024-03-02T01:29:12;8.30;72.80
1337;DHT22;662;48.814;9.318;2024-03-02T01:31:37;8.20;72.80
1337;DHT22;662;48.814;9.318;2024-03-02T01:34:05;8.20;72.70
1337;DHT22;662;48.814;9.318;2024-03-02T01:36:30;8.20;72.70
1337;DHT22;662;48.814;9.318;2024-03-02T01:38:56;8.20;72.70
1337;DHT22;662;48.814;9.318;2024-03-02T01:41:21;8.20;72.70
1337;DHT22;662;48.814;9.318;2024-03-02T01:43:47;8.20;72.70
1337;DHT22;662;48.814;9.318;2024-03-02T01:46:13;8.20;72.70
1337;DHT22;662;48.814;9.318;2024-03-02T01:48:38;8.20;72.60
1337;DHT22;662;48.814;9.318;2024-03-02T01:51:04;8.20;72.60
1337;DHT22;662;48.814;9.318;2024-03-02T01:53:31;8.20;72.50
1337;DHT22;662;48.814;9.318;2024-03-02T01:55:57;8.20;72.50
1337;DHT22;662;48.814;9.318;2024-03-02T01:58:23;8.30;72.60
1337;DHT22;662;48.814;9.318;2024-03-02T02:00:48;8.30;72.50
1337;DHT22;662;48.814;9.318;2024-03-02T02:03:17;8.30;72.40
1337;DHT22;662;48.814;9.318;2024-03-02T02:05:43;8.20;72.20
1337;DHT22;662;48.814;9.318;2024-03-02T02:08:09;8.20;72.10
1337;DHT22;662;48.814;9.318;2024-03-02T02:10:34;8.20;72.10
1337;DHT22;662;48.814;9.318;2024-03-02T02:13:00;8.20;71.90
1337;DHT22;662;48.814;9.318;2024-03-02T02:15:30;8.20;71.80
1337;DHT22;662;48.814;9.318;2024-03-02T02:17:57;8.10;71.70
1337;DHT22;662;48.814;9.318;2024-03-02T02:20:22;8.10;71.70
1337;DHT22;662;48.814;9.318;2024-03-02T02:23:02;8.10;71.70
1337;DHT22;662;48.814;9.318;2024-03-02T02:25:28;8.00;71.60
1337;DHT22;662;48.814;9.318;2024-03-02T02:27:55;8.00;71.60
1337;DHT22;662;48.814;9.318;2024-03-02T02:30:30;8.00;71.60
1337;DHT22;662;48.814;9.318;2024-03-02T02:32:56;8.00;71.70
1337;DHT22;662;48.814;9.318;2024-03-02T02:35:22;8.00;71.80
1337;DHT22;662;48.814;9.318;2024-03-02T02:37:50;7.90;71.80
1337;DHT22;662;48.814;9.318;2024-03-02T02:40:16;7.90;71.70
1337;DHT22;662;48.814;9.318;2024-03-02T02:42:44;7.80;71.60
1337;DHT22;662;48.814;9.318;2024-03-02T02:45:09;7.80;71.60
1337;DHT22;662;48.814;9.318;2024-03-02T02:47:36;7.80;71.60
1337;DHT22;662;48.814;9.318;2024-03-02T02:50:03;7.80;71.80
1337;DHT22;662;48.814;9.318;2024-03-02T02:52:35;7.80;71.90
1337;DHT22;662;48.814;9.318;2024-03-02T02:55:05;7.80;72.00
1337;DHT22;662;48.814;9.318;2024-03-02T02:57:32;7.80;72.00
1337;DHT22;662;48.814;9.318;2024-03-02T03:00:02;7.80;72.10
1337;DHT22;662;48.814;9.318;2024-03-02T03:02:30;7.70;72.00
1337;DHT22;662;48.814;9.318;2024-03-02T03:04:56;7.70;72.10
1337;DHT22;662;48.814;9.318;2024-03-02T03:07:23;7.70;72.10
1337;DHT22;662;48.814;9.318;2024-03-02T03:09:48;7.70;71.90
1337;DHT22;662;48.814;9.318;2024-03-02T03:12:14;7.70;71.90
1337;DHT22;662;48.814;9.318;2024-03-02T03:14:42;7.60;72.50
1337;DHT22;662;48.814;9.318;2024-03-02T03:17:08;7.60;71.80
1337;DHT22;662;48.814;9.318;2024-03-02T03:19:34;7.60;71.80
1337;DHT22;662;48.814;9.318;2024-03-02T03:21:59;7.60;71.70
1337;DHT22;662;48.814;9.318;2024-03-02T03:24:25;7.50;71.60
1337;DHT22;662;48.814;9.318;2024-03-02T03:26:51;7.50;71.60
1337;DHT22;662;48.814;9.318;2024-03-02T03:29:16;7.50;71.50
1337;DHT22;662;48.814;9.318;2024-03-02T03:31:42;7.50;71.50
1337;DHT22;662;48.814;9.318;2024-03-02T03:34:07;7.50;71.50
1337;DHT22;662;48.814;9.318;2024-03-02T03:36:33;7.50;71.60
1337;DHT22;662;48.814;9.318;2024-03-02T03:38:58;7.50;71.60
1337;DHT22;662;48.814;9.318;2024-03-02T03:41:24;7.50;71.60
1337;DHT22;662;48.814;9.318;2024-03-02T03:43:50;7.40;71.30
1337;DHT22;662;48.814;9.318;2024-03-02T03:46:15;7.40;71.20
1337;DHT22;662;48.814;9.318;2024-03-02T03:48:41;7.40;71.10
1337;DHT22;662;48.814;9.318;2024-03-02T03:51:07;7.40;71.10
1337;DHT22;662;48.814;9.318;2024-03-02T03:53:33;7.30;70.90
1337;DHT22;662;48.814;9.318;2024-03-02T03:55:58;7.30;70.90
1337;DHT22;662;48.814;9.318;2024-03-02T03:58:24;7.30;70.90
1337;DHT22;662;48.814;9.318;2024-03-02T04:00:49;7.20;70.80
1337;DHT22;662;48.814;9.318;2024-03-02T04:03:15;7.20;70.90
1337;DHT22;662;48.814;9.318;2024-03-02T04:05:40;7.20;70.90
1337;DHT22;662;48.814;9.318;2024-03-02T04:08:06;7.20;70.90
1337;DHT22;662;48.814;9.318;2024-03-02T04:10:32;7.10;71.00
1337;DHT22;662;48.814;9.318;2024-03-02T04:12:57;7.10;71.10
1337;DHT22;662;48.814;9.318;2024-03-02T04:15:23;7.10;71.30
1337;DHT22;662;48.814;9.318;2024-03-02T04:17:49;7.10;71.40
1337;DHT22;662;48.814;9.318;2024-03-02T04:20:14;7.00;71.60
1337;DHT22;662;48.814;9.318;2024-03-02T04:22:40;7.00;71.90
1337;DHT22;662;48.814;9.318;2024-03-02T04:25:06;7.00;72.10
1337;DHT22;662;48.814;9.318;2024-03-02T04:27:32;7.00;72.30
1337;DHT22;662;48.814;9.318;2024-03-02T04:29:58;7.00;72.40
1337;DHT22;662;48.814;9.318;2024-03-02T04:32:26;7.00;72.50
1337;DHT22;662;48.814;9.318;2024-03-02T04:34:52;7.00;72.40
1337;DHT22;662;48.814;9.318;2024-03-02T04:37:18;7.00;72.40
1337;DHT22;662;48.814;9.318;2024-03-02T04:39:43;7.00;72.30
1337;DHT22;662;48.814;9.318;2024-03-02T04:42:09;7.00;72.30
1337;DHT22;662;48.814;9.318;2024-03-02T04:44:34;7.00;72.30
1337;DHT22;662;48.814;9.318;2024-03-02T04:47:00;7.00;72.30
1337;DHT22;662;48.814;9.318;2024-03-02T04:49:26;7.00;72.20
1337;DHT22;662;48.814;9.318;2024-03-02T04:51:52;7.00;72.10
1337;DHT22;662;48.814;9.318;2024-03-02T04:54:18;7.00;72.10
1337;DHT22;662;48.814;9.318;2024-03-02T04:56:44;7.00;72.10
1337;DHT22;662;48.814;9.318;2024-03-02T04:59:10;7.00;72.10
1337;DHT22;662;48.814;9.318;2024-03-02T05:01:37;6.90;71.90
1337;DHT22;662;48.814;9.318;2024-03-02T05:04:03;6.90;71.90
1337;DHT22;662;48.814;9.318;2024-03-02T05:06:28;6.90;72.00
1337;DHT22;662;48.814;9.318;2024-03-02T05:08:55;6.90;71.90
1337;DHT22;662;48.814;9.318;2024-03-02T05:11:21;6.90;71.80
1337;DHT22;662;48.814;9.318;2024-03-02T05:14:05;6.80;71.80
1337;DHT22;662;48.814;9.318;2024-03-02T05:16:35;6.80;71.80
1337;DHT22;662;48.814;9.318;2024-03-02T05:19:00;6.80;71.80
1337;DHT22;662;48.814;9.318;2024-03-02T05:21:26;6.70;71.70
1337;DHT22;662;48.814;9.318;2024-03-02T05:23:52;6.70;71.60
1337;DHT22;662;48.814;9.318;2024-03-02T05:26:17;6.70;71.60
1337;DHT22;662;48.814;9.318;2024-03-02T05:28:43;6.70;71.60
1337;DHT22;662;48.814;9.318;2024-03-02T05:31:15;6.70;72.30
1337;DHT22;662;48.814;9.318;2024-03-02T05:33:42;6.70;71.60
1337;DHT22;662;48.814;9.318;2024-03-02T05:36:07;6.70;71.60
1337;DHT22;662;48.814;9.318;2024-03-02T05:38:36;6.70;71.70
1337;DHT22;662;48.814;9.318;2024-03-02T05:41:02;6.70;71.50
1337;DHT22;662;48.814;9.318;2024-03-02T05:43:27;6.70;71.60
1337;DHT22;662;48.814;9.318;2024-03-02T05:45:54;6.70;71.60
1337;DHT22;662;48.814;9.318;2024-03-02T05:48:19;6.70;71.60
1337;DHT22;662;48.814;9.318;2024-03-02T05:50:45;6.60;71.40
1337;DHT22;662;48.814;9.318;2024-03-02T05:53:11;6.60;71.40
1337;DHT22;662;48.814;9.318;2024-03-02T05:55:36;6.60;71.50
1337;DHT22;662;48.814;9.318;2024-03-02T05:58:02;6.60;71.50
1337;DHT22;662;48.814;9.318;2024-03-02T06:00:29;6.60;71.50
1337;DHT22;662;48.814;9.318;2024-03-02T06:02:56;6.60;71.40
1337;DHT22;662;48.814;9.318;2024-03-02T06:05:22;6.50;71.30
1337;DHT22;662;48.814;9.318;2024-03-02T06:07:47;6.60;71.50
1337;DHT22;662;48.814;9.318;2024-03-02T06:10:13;6.50;71.40
1337;DHT22;662;48.814;9.318;2024-03-02T06:12:39;6.50;71.60
1337;DHT22;662;48.814;9.318;2024-03-02T06:15:05;6.50;71.70
1337;DHT22;662;48.814;9.318;2024-03-02T06:17:32;6.50;71.90
1337;DHT22;662;48.814;9.318;2024-03-02T06:20:00;6.60;72.20
1337;DHT22;662;48.814;9.318;2024-03-02T06:22:26;6.60;72.20
1337;DHT22;662;48.814;9.318;2024-03-02T06:24:51;6.60;72.20
1337;DHT22;662;48.814;9.318;2024-03-02T06:27:17;6.60;72.10
1337;DHT22;662;48.814;9.318;2024-03-02T06:29:43;6.60;71.90
1337;DHT22;662;48.814;9.318;2024-03-02T06:32:08;6.60;71.80
1337;DHT22;662;48.814;9.318;2024-03-02T06:34:34;6.60;71.70
1337;DHT22;662;48.814;9.318;2024-03-02T06:36:59;6.60;71.40
1337;DHT22;662;48.814;9.318;2024-03-02T06:39:25;6.60;71.40
1337;DHT22;662;48.814;9.318;2024-03-02T06:41:51;6.60;71.40
1337;DHT22;662;48.814;9.318;2024-03-02T06:44:17;6.60;71.40
1337;DHT22;662;48.814;9.318;2024-03-02T06:46:43;6.60;71.40
1337;DHT22;662;48.814;9.318;2024-03-02T06:49:08;6.60;71.40
1337;DHT22;662;48.814;9.318;2024-03-02T06:51:36;6.60;71.40
1337;DHT22;662;48.814;9.318;2024-03-02T06:54:02;6.70;71.40
1337;DHT22;662;48.814;9.318;2024-03-02T06:56:27;6.70;71.30
1337;DHT22;662;48.814;9.318;2024-03-02T06:58:54;6.70;71.20
1337;DHT22;662;48.814;9.318;2024-03-02T07:01:19;6.70;71.30
1337;DHT22;662;48.814;9.318;2024-03-02T07:03:46;6.80;71.40
1337;DHT22;662;48.814;9.318;2024-03-02T07:06:11;6.80;71.30
1337;DHT22;662;48.814;9.318;2024-03-02T07:08:37;6.90;72.00
1337;DHT22;662;48.814;9.318;2024-03-02T07:11:03;6.90;71.10
1337;DHT22;662;48.814;9.318;2024-03-02T07:13:30;6.90;71.10
1337;DHT22;662;48.814;9.318;2024-03-02T07:15:55;7.00;71.30
1337;DHT22;662;48.814;9.318;2024-03-02T07:18:36;7.10;71.20
1337;DHT22;662;48.814;9.318;2024-03-02T07:21:13;7.10;71.10
1337;DHT22;662;48.814;9.318;2024-03-02T07:23:38;7.20;71.20
1337;DHT22;662;48.814;9.318;2024-03-02T07:26:04;7.30;71.30
1337;DHT22;662;48.814;9.318;2024-03-02T07:28:29;7.30;71.20
1337;DHT22;662;48.814;9.318;2024-03-02T07:31:03;7.40;71.10
1337;DHT22;662;48.814;9.318;2024-03-02T07:33:30;7.50;71.20
1337;DHT22;662;48.814;9.318;2024-03-02T07:35:56;7.60;71.10
1337;DHT22;662;48.814;9.318;2024-03-02T07:38:23;7.60;71.00
1337;DHT22;662;48.814;9.318;2024-03-02T07:40:49;7.70;71.10
1337;DHT22;662;48.814;9.318;2024-03-02T07:43:18;7.90;71.10
1337;DHT22;662;48.814;9.318;2024-03-02T07:45:45;7.90;71.10
1337;DHT22;662;48.814;9.318;2024-03-02T07:48:10;8.00;71.10
1337;DHT22;662;48.814;9.318;2024-03-02T07:50:36;8.00;71.10
1337;DHT22;662;48.814;9.318;2024-03-02T07:53:03;8.20;71.10
1337;DHT22;662;48.814;9.318;2024-03-02T07:55:29;8.30;71.00
1337;DHT22;662;48.814;9.318;2024-03-02T07:57:55;8.40;70.90
1337;DHT22;662;48.814;9.318;2024-03-02T08:00:22;8.40;70.70
1337;DHT22;662;48.814;9.318;2024-03-02T08:02:48;8.50;70.70
1337;DHT22;662;48.814;9.318;2024-03-02T08:05:14;8.60;70.70
1337;DHT22;662;48.814;9.318;2024-03-02T08:07:40;8.60;70.50
1337;DHT22;662;48.814;9.318;2024-03-02T08:10:06;8.70;70.50
1337;DHT22;662;48.814;9.318;2024-03-02T08:12:32;8.70;70.50
1337;DHT22;662;48.814;9.318;2024-03-02T08:14:58;8.70;70.30
1337;DHT22;662;48.814;9.318;2024-03-02T08:17:23;8.70;70.30
1337;DHT22;662;48.814;9.318;2024-03-02T08:19:49;8.80;70.20
1337;DHT22;662;48.814;9.318;2024-03-02T08:22:15;8.80;70.10
1337;DHT22;662;48.814;9.318;2024-03-02T08:24:41;8.80;70.10
1337;DHT22;662;48.814;9.318;2024-03-02T08:27:06;8.80;70.00
1337;DHT22;662;48.814;9.318;2024-03-02T08:29:32;8.90;70.10
1337;DHT22;662;48.814;9.318;2024-03-02T08:32:00;8.90;70.10
1337;DHT22;662;48.814;9.318;2024-03-02T08:34:26;9.00;70.20
1337;DHT22;662;48.814;9.318;2024-03-02T08:36:52;9.10;70.30
1337;DHT22;662;48.814;9.318;2024-03-02T08:39:18;9.20;70.50
1337;DHT22;662;48.814;9.318;2024-03-02T08:41:45;9.40;70.90
1337;DHT22;662;48.814;9.318;2024-03-02T08:44:12;9.60;70.80
1337;DHT22;662;48.814;9.318;2024-03-02T08:46:39;9.70;70.50
1337;DHT22;662;48.814;9.318;2024-03-02T08:49:05;10.00;69.10
1337;DHT22;662;48.814;9.318;2024-03-02T08:51:31;10.40;68.70
1337;DHT22;662;48.814;9.318;2024-03-02T08:53:57;11.20;68.40
1337;DHT22;662;48.814;9.318;2024-03-02T08:56:24;11.70;67.40
1337;DHT22;662;48.814;9.318;2024-03-02T08:58:50;12.50;67.00
1337;DHT22;662;48.814;9.318;2024-03-02T09:01:17;13.30;65.60
1337;DHT22;662;48.814;9.318;2024-03-02T09:03:43;14.00;64.10
1337;DHT22;662;48.814;9.318;2024-03-02T09:06:12;15.30;63.50
1337;DHT22;662;48.814;9.318;2024-03-02T09:08:38;16.90;58.90
1337;DHT22;662;48.814;9.318;2024-03-02T09:11:05;18.30;56.20
1337;DHT22;662;48.814;9.318;2024-03-02T09:13:31;19.70;52.90
1337;DHT22;662;48.814;9.318;2024-03-02T09:15:57;21.00;50.90
1337;DHT22;662;48.814;9.318;2024-03-02T09:18:22;22.30;48.70
1337;DHT22;662;48.814;9.318;2024-03-02T09:20:48;23.50;46.20
1337;DHT22;662;48.814;9.318;2024-03-02T09:23:14;24.40;43.30
1337;DHT22;662;48.814;9.318;2024-03-02T09:25:39;25.30;41.10
1337;DHT22;662;48.814;9.318;2024-03-02T09:28:05;26.20;39.40
1337;DHT22;662;48.814;9.318;2024-03-02T09:30:32;27.00;37.80
1337;DHT22;662;48.814;9.318;2024-03-02T09:32:58;27.60;36.40
1337;DHT22;662;48.814;9.318;2024-03-02T09:35:23;28.20;34.80
1337;DHT22;662;48.814;9.318;2024-03-02T09:37:49;28.70;32.80
1337;DHT22;662;48.814;9.318;2024-03-02T09:40:15;29.10;31.80
1337;DHT22;662;48.814;9.318;2024-03-02T09:42:42;29.30;30.50
1337;DHT22;662;48.814;9.318;2024-03-02T09:45:08;29.40;30.50
1337;DHT22;662;48.814;9.318;2024-03-02T09:47:34;29.60;30.10
1337;DHT22;662;48.814;9.318;2024-03-02T09:50:00;29.70;30.00
1337;DHT22;662;48.814;9.318;2024-03-02T09:52:26;29.90;29.40
1337;DHT22;662;48.814;9.318;2024-03-02T09:54:51;29.90;29.10
1337;DHT22;662;48.814;9.318;2024-03-02T09:57:17;29.80;28.90
1337;DHT22;662;48.814;9.318;2024-03-02T09:59:43;29.80;29.50
1337;DHT22;662;48.814;9.318;2024-03-02T10:02:08;29.80;28.30
1337;DHT22;662;48.814;9.318;2024-03-02T10:04:34;29.70;27.50
1337;DHT22;662;48.814;9.318;2024-03-02T10:07:16;29.60;27.10
1337;DHT22;662;48.814;9.318;2024-03-02T10:09:43;29.10;26.90
1337;DHT22;662;48.814;9.318;2024-03-02T10:12:11;28.00;26.50
1337;DHT22;662;48.814;9.318;2024-03-02T10:14:40;26.50;27.40
1337;DHT22;662;48.814;9.318;2024-03-02T10:17:10;25.20;28.70
1337;DHT22;662;48.814;9.318;2024-03-02T10:19:36;24.00;30.00
1337;DHT22;662;48.814;9.318;2024-03-02T10:22:06;23.00;31.30
1337;DHT22;662;48.814;9.318;2024-03-02T10:24:40;22.00;32.40
1337;DHT22;662;48.814;9.318;2024-03-02T10:27:10;21.30;33.70
1337;DHT22;662;48.814;9.318;2024-03-02T10:29:40;20.50;34.90
1337;DHT22;662;48.814;9.318;2024-03-02T10:32:08;19.80;35.80
1337;DHT22;662;48.814;9.318;2024-03-02T10:34:35;19.20;36.70
1337;DHT22;662;48.814;9.318;2024-03-02T10:37:01;18.60;37.90
1337;DHT22;662;48.814;9.318;2024-03-02T10:39:28;18.20;38.60
1337;DHT22;662;48.814;9.318;2024-03-02T10:41:55;17.70;39.40
1337;DHT22;662;48.814;9.318;2024-03-02T10:44:22;17.40;40.50
1337;DHT22;662;48.814;9.318;2024-03-02T10:46:49;17.00;41.40
1337;DHT22;662;48.814;9.318;2024-03-02T10:49:19;16.70;42.10
1337;DHT22;662;48.814;9.318;2024-03-02T10:51:46;16.40;42.10
1337;DHT22;662;48.814;9.318;2024-03-02T10:54:11;16.20;42.80
1337;DHT22;662;48.814;9.318;2024-03-02T10:56:41;16.00;43.20
1337;DHT22;662;48.814;9.318;2024-03-02T10:59:27;15.80;44.60
1337;DHT22;662;48.814;9.318;2024-03-02T11:01:58;15.60;45.50
1337;DHT22;662;48.814;9.318;2024-03-02T11:04:27;15.40;46.20
1337;DHT22;662;48.814;9.318;2024-03-02T11:07:00;15.40;46.40
1337;DHT22;662;48.814;9.318;2024-03-02T11:09:29;15.30;46.70
1337;DHT22;662;48.814;9.318;2024-03-02T11:14:40;15.10;47.40
1337;DHT22;662;48.814;9.318;2024-03-02T11:17:09;15.00;47.80
1337;DHT22;662;48.814;9.318;2024-03-02T11:19:40;15.00;48.00
1337;DHT22;662;48.814;9.318;2024-03-02T11:22:06;14.90;48.30
1337;DHT22;662;48.814;9.318;2024-03-02T11:24:32;14.90;48.40
1337;DHT22;662;48.814;9.318;2024-03-02T11:26:59;14.90;48.30
1337;DHT22;662;48.814;9.318;2024-03-02T11:32:16;15.20;48.30
1337;DHT22;662;48.814;9.318;2024-03-02T11:34:46;15.70;47.90
1337;DHT22;662;48.814;9.318;2024-03-02T11:37:19;16.40;47.10
1337;DHT22;662;48.814;9.318;2024-03-02T11:39:49;17.10;46.50
1337;DHT22;662;48.814;9.318;2024-03-02T11:42:15;17.80;45.30
1337;DHT22;662;48.814;9.318;2024-03-02T11:44:46;18.40;44.20
1337;DHT22;662;48.814;9.318;2024-03-02T11:47:16;19.00;43.40
1337;DHT22;662;48.814;9.318;2024-03-02T11:49:50;19.50;42.50
1337;DHT22;662;48.814;9.318;2024-03-02T11:52:17;20.10;41.20
1337;DHT22;662;48.814;9.318;2024-03-02T11:54:47;20.50;40.20
1337;DHT22;662;48.814;9.318;2024-03-02T11:57:20;20.80;39.00
1337;DHT22;662;48.814;9.318;2024-03-02T11:59:48;21.20;38.70
1337;DHT22;662;48.814;9.318;2024-03-02T12:02:23;21.70;38.60
1337;DHT22;662;48.814;9.318;2024-03-02T12:04:50;22.00;37.20
1337;DHT22;662;48.814;9.318;2024-03-02T12:07:21;22.40;37.30
1337;DHT22;662;48.814;9.318;2024-03-02T12:10:10;22.70;36.60
1337;DHT22;662;48.814;9.318;2024-03-02T12:12:36;22.90;35.00
1337;DHT22;662;48.814;9.318;2024-03-02T12:15:02;23.00;34.70
1337;DHT22;662;48.814;9.318;2024-03-02T12:17:29;23.00;35.20
1337;DHT22;662;48.814;9.318;2024-03-02T12:19:54;23.00;35.00
1337;DHT22;662;48.814;9.318;2024-03-02T12:22:21;22.90;35.10
1337;DHT22;662;48.814;9.318;2024-03-02T12:24:47;22.80;35.00
1337;DHT22;662;48.814;9.318;2024-03-02T12:27:14;22.70;35.30
1337;DHT22;662;48.814;9.318;2024-03-02T12:29:40;22.80;35.10
1337;DHT22;662;48.814;9.318;2024-03-02T12:32:06;22.80;35.00
1337;DHT22;662;48.814;9.318;2024-03-02T12:34:32;23.00;35.60
1337;DHT22;662;48.814;9.318;2024-03-02T12:36:58;23.20;34.50
1337;DHT22;662;48.814;9.318;2024-03-02T12:39:26;23.30;34.30
1337;DHT22;662;48.814;9.318;2024-03-02T12:41:52;23.40;33.70
1337;DHT22;662;48.814;9.318;2024-03-02T12:44:19;23.60;34.30
1337;DHT22;662;48.814;9.318;2024-03-02T12:46:46;23.60;33.50
1337;DHT22;662;48.814;9.318;2024-03-02T12:49:13;23.70;33.20
1337;DHT22;662;48.814;9.318;2024-03-02T12:51:41;23.60;32.50
1337;DHT22;662;48.814;9.318;2024-03-02T12:54:11;23.80;33.40
1337;DHT22;662;48.814;9.318;2024-03-02T12:56:41;23.80;33.50
1337;DHT22;662;48.814;9.318;2024-03-02T12:59:18;23.70;33.10
1337;DHT22;662;48.814;9.318;2024-03-02T13:01:55;23.90;34.10
1337;DHT22;662;48.814;9.318;2024-03-02T13:04:27;24.10;33.60
1337;DHT22;662;48.814;9.318;2024-03-02T13:06:56;24.40;32.80
1337;DHT22;662;48.814;9.318;2024-03-02T13:09:25;24.60;33.00
1337;DHT22;662;48.814;9.318;2024-03-02T13:11:51;24.90;32.80
1337;DHT22;662;48.814;9.318;2024-03-02T13:14:17;25.20;32.10
1337;DHT22;662;48.814;9.318;2024-03-02T13:16:45;25.50;31.30
1337;DHT22;662;48.814;9.318;2024-03-02T13:19:12;25.70;30.80
1337;DHT22;662;48.814;9.318;2024-03-02T13:21:38;25.90;30.90
1337;DHT22;662;48.814;9.318;2024-03-02T13:24:05;26.00;30.50
1337;DHT22;662;48.814;9.318;2024-03-02T13:26:31;26.00;30.40
1337;DHT22;662;48.814;9.318;2024-03-02T13:28:56;26.10;30.20
1337;DHT22;662;48.814;9.318;2024-03-02T13:31:22;26.10;29.70
1337;DHT22;662;48.814;9.318;2024-03-02T13:33:48;26.20;30.00
1337;DHT22;662;48.814;9.318;2024-03-02T13:36:13;26.30;30.00
1337;DHT22;662;48.814;9.318;2024-03-02T13:38:39;26.40;29.80
1337;DHT22;662;48.814;9.318;2024-03-02T13:41:05;26.50;29.50
1337;DHT22;662;48.814;9.318;2024-03-02T13:43:31;26.60;29.20
1337;DHT22;662;48.814;9.318;2024-03-02T13:45:58;26.70;28.70
1337;DHT22;662;48.814;9.318;2024-03-02T13:48:24;26.70;28.90
1337;DHT22;662;48.814;9.318;2024-03-02T13:50:53;26.70;28.70
1337;DHT22;662;48.814;9.318;2024-03-02T13:53:19;26.70;28.50
1337;DHT22;662;48.814;9.318;2024-03-02T13:55:45;26.70;28.70
1337;DHT22;662;48.814;9.318;2024-03-02T13:58:11;26.70;28.30
1337;DHT22;662;48.814;9.318;2024-03-02T14:00:38;26.80;28.70
1337;DHT22;662;48.814;9.318;2024-03-02T14:03:06;26.90;28.40
1337;DHT22;662;48.814;9.318;2024-03-02T14:05:32;26.90;27.70
1337;DHT22;662;48.814;9.318;2024-03-02T14:07:58;26.60;27.60
1337;DHT22;662;48.814;9.318;2024-03-02T14:10:25;26.20;27.90
1337;DHT22;662;48.814;9.318;2024-03-02T14:12:51;26.10;28.00
1337;DHT22;662;48.814;9.318;2024-03-02T14:15:17;26.20;28.10
1337;DHT22;662;48.814;9.318;2024-03-02T14:17:42;26.20;28.00
1337;DHT22;662;48.814;9.318;2024-03-02T14:20:08;26.30;28.50
1337;DHT22;662;48.814;9.318;2024-03-02T14:22:37;26.50;28.10
1337;DHT22;662;48.814;9.318;2024-03-02T14:25:03;26.50;28.20
1337;DHT22;662;48.814;9.318;2024-03-02T14:27:29;26.50;28.00
1337;DHT22;662;48.814;9.318;2024-03-02T14:29:54;26.50;27.40
1337;DHT22;662;48.814;9.318;2024-03-02T14:32:20;26.40;27.20
1337;DHT22;662;48.814;9.318;2024-03-02T14:34:46;26.00;27.10
1337;DHT22;662;48.814;9.318;2024-03-02T14:37:13;25.70;27.40
1337;DHT22;662;48.814;9.318;2024-03-02T14:39:39;25.50;28.10
1337;DHT22;662;48.814;9.318;2024-03-02T14:42:05;25.40;28.30
1337;DHT22;662;48.814;9.318;2024-03-02T14:44:32;25.20;27.80
1337;DHT22;662;48.814;9.318;2024-03-02T14:46:57;24.90;28.30
1337;DHT22;662;48.814;9.318;2024-03-02T14:49:26;24.70;28.30
1337;DHT22;662;48.814;9.318;2024-03-02T14:51:52;24.30;28.70
1337;DHT22;662;48.814;9.318;2024-03-02T14:54:18;24.10;28.70
1337;DHT22;662;48.814;9.318;2024-03-02T14:56:46;23.70;29.00
1337;DHT22;662;48.814;9.318;2024-03-02T14:59:12;23.20;29.40
1337;DHT22;662;48.814;9.318;2024-03-02T15:01:38;22.80;29.90
1337;DHT22;662;48.814;9.318;2024-03-02T15:04:04;22.50;30.30
1337;DHT22;662;48.814;9.318;2024-03-02T15:06:30;22.20;30.60
1337;DHT22;662;48.814;9.318;2024-03-02T15:08:56;21.80;30.80
1337;DHT22;662;48.814;9.318;2024-03-02T15:11:21;21.50;31.50
1337;DHT22;662;48.814;9.318;2024-03-02T15:13:50;21.20;31.90
1337;DHT22;662;48.814;9.318;2024-03-02T15:16:16;20.80;31.70
1337;DHT22;662;48.814;9.318;2024-03-02T15:18:42;20.60;31.80
1337;DHT22;662;48.814;9.318;2024-03-02T15:21:08;20.20;32.00
1337;DHT22;662;48.814;9.318;2024-03-02T15:23:33;19.90;32.50
1337;DHT22;662;48.814;9.318;2024-03-02T15:25:59;19.70;33.30
1337;DHT22;662;48.814;9.318;2024-03-02T15:28:25;19.50;34.00
1337;DHT22;662;48.814;9.318;2024-03-02T15:30:51;19.20;34.90
1337;DHT22;662;48.814;9.318;2024-03-02T15:33:17;19.00;35.50
1337;DHT22;662;48.814;9.318;2024-03-02T15:35:43;18.70;36.60
1337;DHT22;662;48.814;9.318;2024-03-02T15:38:09;18.40;37.00
1337;DHT22;662;48.814;9.318;2024-03-02T15:40:37;18.20;37.70
1337;DHT22;662;48.814;9.318;2024-03-02T15:43:03;17.90;38.10
1337;DHT22;662;48.814;9.318;2024-03-02T15:45:28;17.70;38.20
1337;DHT22;662;48.814;9.318;2024-03-02T15:47:59;17.50;38.10
1337;DHT22;662;48.814;9.318;2024-03-02T15:50:25;17.30;38.80
1337;DHT22;662;48.814;9.318;2024-03-02T15:52:51;17.20;39.50
1337;DHT22;662;48.814;9.318;2024-03-02T15:55:17;17.10;40.00
1337;DHT22;662;48.814;9.318;2024-03-02T15:57:43;17.00;40.40
1337;DHT22;662;48.814;9.318;2024-03-02T16:00:09;16.90;40.60
1337;DHT22;662;48.814;9.318;2024-03-02T16:02:35;16.80;41.20
1337;DHT22;662;48.814;9.318;2024-03-02T16:05:00;16.70;40.90
1337;DHT22;662;48.814;9.318;2024-03-02T16:07:26;16.60;41.20
1337;DHT22;662;48.814;9.318;2024-03-02T16:09:51;16.60;41.70
1337;DHT22;662;48.814;9.318;2024-03-02T16:14:54;16.40;42.50
1337;DHT22;662;48.814;9.318;2024-03-02T16:17:19;16.30;42.90
1337;DHT22;662;48.814;9.318;2024-03-02T16:19:45;16.30;43.50
1337;DHT22;662;48.814;9.318;2024-03-02T16:22:12;16.20;43.90
1337;DHT22;662;48.814;9.318;2024-03-02T16:24:40;16.00;44.30
1337;DHT22;662;48.814;9.318;2024-03-02T16:27:06;16.00;44.70
1337;DHT22;662;48.814;9.318;2024-03-02T16:29:33;15.90;44.80
1337;DHT22;662;48.814;9.318;2024-03-02T16:31:58;15.80;45.20
1337;DHT22;662;48.814;9.318;2024-03-02T16:34:25;15.80;45.60
1337;DHT22;662;48.814;9.318;2024-03-02T16:36:51;15.70;45.70
1337;DHT22;662;48.814;9.318;2024-03-02T16:39:16;15.70;46.00
1337;DHT22;662;48.814;9.318;2024-03-02T16:41:42;15.60;46.40